createdAt,value
2017-10-28T00:00:57.081Z,3.45
2017-10-28T00:03:26.740Z,8.95
2017-10-28T00:05:58.015Z,5.22
2017-10-28T00:08:30.538Z,12.90
2017-10-28T00:11:01.682Z,12.98
2017-10-28T00:13:34.162Z,8.82
2017-10-28T00:16:19.987Z,7.68
2017-10-28T00:18:50.465Z,6.47
2017-10-28T00:21:20.137Z,8.13
2017-10-28T00:23:49.863Z,10.07
2017-10-28T00:26:31.890Z,6.97
2017-10-28T00:29:01.592Z,7.07
2017-10-28T00:31:37.182Z,10.35
2017-10-28T00:34:12.239Z,9.18
2017-10-28T00:36:41.564Z,7.32
2017-10-28T00:39:10.702Z,4.62
2017-10-28T00:41:47.036Z,6.30
2017-10-28T00:44:16.499Z,7.35
2017-10-28T00:46:47.291Z,8.50
2017-10-28T00:49:28.979Z,12.00
2017-10-28T00:55:06.798Z,11.27
2017-10-28T00:57:36.610Z,3.50
2017-10-28T01:00:12.197Z,5.28
2017-10-28T01:02:41.830Z,8.10
2017-10-28T01:05:11.493Z,7.87
2017-10-28T01:07:41.305Z,11.38
2017-10-28T01:16:05.983Z,6.75
2017-10-28T01:18:35.658Z,10.90
2017-10-28T01:21:05.440Z,8.25
2017-10-28T01:23:53.775Z,13.38
2017-10-28T01:26:23.471Z,7.40
2017-10-28T01:28:53.191Z,6.32
2017-10-28T01:31:22.858Z,8.23
2017-10-28T01:33:52.586Z,5.62
2017-10-28T01:36:27.951Z,8.10
2017-10-28T01:38:57.672Z,7.70
2017-10-28T01:41:28.092Z,12.43
2017-10-28T01:44:02.038Z,2.75
2017-10-28T01:46:53.422Z,7.82
2017-10-28T01:49:23.133Z,7.37
2017-10-28T01:51:52.793Z,13.48
2017-10-28T01:54:22.497Z,11.18
2017-10-28T02:00:00.714Z,5.03
2017-10-28T02:02:30.174Z,9.30
2017-10-28T02:05:00.070Z,7.05
2017-10-28T02:07:32.651Z,5.15
2017-10-28T02:10:24.567Z,11.38
2017-10-28T02:15:51.478Z,9.52
2017-10-28T02:18:21.949Z,5.00
2017-10-28T02:20:57.106Z,5.62
2017-10-28T02:23:26.790Z,13.70
2017-10-28T02:26:02.283Z,10.25
2017-10-28T02:28:31.769Z,7.50
2017-10-28T02:34:16.487Z,5.45
2017-10-28T02:36:46.300Z,6.10
2017-10-28T02:39:28.485Z,12.65
2017-10-28T02:42:19.904Z,8.02
2017-10-28T02:47:58.299Z,6.85
2017-10-28T02:50:29.396Z,5.78
2017-10-28T02:52:59.642Z,4.45
2017-10-28T02:55:29.902Z,6.40
2017-10-28T02:58:11.889Z,7.87
2017-10-28T03:00:44.507Z,6.40
2017-10-28T03:06:17.876Z,7.37
2017-10-28T03:08:47.192Z,11.45
2017-10-28T03:11:29.331Z,6.35
2017-10-28T03:13:58.998Z,5.25
2017-10-28T03:16:28.697Z,8.45
2017-10-28T03:18:58.360Z,7.00
2017-10-28T03:21:29.921Z,7.05
2017-10-28T03:24:01.668Z,3.70
2017-10-28T03:26:46.927Z,8.52
2017-10-28T03:29:16.600Z,6.60
2017-10-28T03:31:46.296Z,9.00
2017-10-28T03:34:15.954Z,3.22
2017-10-28T03:36:46.844Z,8.82
2017-10-28T03:39:19.062Z,9.45
2017-10-28T03:42:01.113Z,8.70
2017-10-28T03:44:31.547Z,10.15
2017-10-28T03:47:01.236Z,7.60
2017-10-28T03:49:34.546Z,9.63
2017-10-28T03:52:07.297Z,9.77
2017-10-28T03:54:38.089Z,6.40
2017-10-28T03:57:10.479Z,7.05
2017-10-28T03:59:43.059Z,11.30
2017-10-28T04:02:15.519Z,13.82
2017-10-28T04:05:03.995Z,9.80
2017-10-28T04:10:28.742Z,9.93
2017-10-28T04:12:58.434Z,5.45
2017-10-28T04:15:28.113Z,11.45
2017-10-28T04:18:00.288Z,10.70
2017-10-28T04:20:36.083Z,8.63
2017-10-28T04:23:08.426Z,9.45
2017-10-28T04:25:38.144Z,7.03
2017-10-28T04:28:19.603Z,7.18
2017-10-28T04:30:49.306Z,7.30
2017-10-28T04:33:25.542Z,6.50
2017-10-28T04:35:55.211Z,9.77
2017-10-28T04:38:24.933Z,8.45
2017-10-28T04:41:07.834Z,10.48
2017-10-28T04:43:37.331Z,9.27
2017-10-28T04:46:13.658Z,7.30
2017-10-28T04:48:43.477Z,9.52
2017-10-28T04:51:13.174Z,11.48
2017-10-28T04:56:58.159Z,6.50
2017-10-28T04:59:27.854Z,10.18
2017-10-28T05:02:04.116Z,7.00
2017-10-28T05:04:37.604Z,11.45
2017-10-28T05:07:23.050Z,6.90
2017-10-28T05:10:14.046Z,6.50
2017-10-28T05:12:46.118Z,12.77
2017-10-28T05:15:16.595Z,6.50
2017-10-28T05:17:45.902Z,5.60
2017-10-28T05:20:14.867Z,7.65
2017-10-28T05:22:45.908Z,5.20
2017-10-28T05:25:31.210Z,9.80
2017-10-28T05:28:02.487Z,3.37
2017-10-28T05:30:32.156Z,7.53
2017-10-28T05:36:06.279Z,4.12
2017-10-28T05:38:35.944Z,4.57
2017-10-28T05:41:21.817Z,3.72
2017-10-28T05:43:51.154Z,4.60
2017-10-28T05:46:20.139Z,6.82
2017-10-28T05:49:08.027Z,6.78
2017-10-28T05:51:48.449Z,6.72
2017-10-28T05:54:23.822Z,4.57
2017-10-28T05:56:56.950Z,5.70
2017-10-28T05:59:32.334Z,6.75
2017-10-28T06:02:08.204Z,6.50
2017-10-28T06:04:38.651Z,4.53
2017-10-28T06:07:14.418Z,2.72
2017-10-28T06:09:49.818Z,2.00
2017-10-28T06:12:19.485Z,4.18
2017-10-28T06:17:50.604Z,3.45
2017-10-28T06:23:14.935Z,3.10
2017-10-28T06:25:44.591Z,3.17
2017-10-28T06:28:17.940Z,4.60
2017-10-28T06:30:47.604Z,2.65
2017-10-28T06:33:26.721Z,2.67
2017-10-28T06:35:59.971Z,4.55
2017-10-28T06:38:30.418Z,3.58
2017-10-28T06:41:00.076Z,4.10
2017-10-28T06:43:35.294Z,4.95
2017-10-28T06:46:04.958Z,4.32
2017-10-28T06:48:37.653Z,4.47
2017-10-28T06:51:07.307Z,4.62
2017-10-28T06:53:42.559Z,8.45
2017-10-28T06:56:12.978Z,4.65
2017-10-28T06:58:52.081Z,4.22
2017-10-28T07:01:21.740Z,7.28
2017-10-28T07:03:52.440Z,4.10
2017-10-28T07:06:31.570Z,6.15
2017-10-28T07:09:02.634Z,3.37
2017-10-28T07:11:32.250Z,6.53
2017-10-28T07:14:01.759Z,7.30
2017-10-28T07:16:32.282Z,4.45
2017-10-28T07:19:02.963Z,7.12
2017-10-28T07:21:43.002Z,6.93
2017-10-28T07:24:12.729Z,7.90
2017-10-28T07:26:42.402Z,5.87
2017-10-28T07:29:19.439Z,5.25
2017-10-28T07:31:49.101Z,8.32
2017-10-28T07:34:18.872Z,4.57
2017-10-28T07:36:48.538Z,6.32
2017-10-28T07:39:24.364Z,5.50
2017-10-28T07:41:54.018Z,6.93
2017-10-28T07:44:23.731Z,4.50
2017-10-28T07:46:53.424Z,2.97
2017-10-28T07:49:41.694Z,9.27
2017-10-28T07:52:11.373Z,6.32
2017-10-28T07:54:41.133Z,9.13
2017-10-28T07:57:10.834Z,5.78
2017-10-28T07:59:40.548Z,4.85
2017-10-28T08:02:17.015Z,10.10
2017-10-28T08:04:59.094Z,4.25
2017-10-28T08:07:29.528Z,7.82
2017-10-28T08:09:59.243Z,6.12
2017-10-28T08:12:28.929Z,11.35
2017-10-28T08:14:59.391Z,5.35
2017-10-28T08:17:29.823Z,9.50
2017-10-28T08:20:00.618Z,10.85
2017-10-28T08:22:30.314Z,5.97
2017-10-28T08:25:11.709Z,7.75
2017-10-28T08:27:42.234Z,7.15
2017-10-28T08:30:22.115Z,6.40
2017-10-28T08:32:51.798Z,7.50
2017-10-28T08:35:21.512Z,6.45
2017-10-28T08:37:51.007Z,5.97
2017-10-28T08:40:21.455Z,8.13
2017-10-28T08:42:51.133Z,9.73
2017-10-28T08:45:23.995Z,7.28
2017-10-28T08:47:53.664Z,6.75
2017-10-28T08:50:23.644Z,8.20
2017-10-28T08:52:54.080Z,8.60
2017-10-28T08:55:23.815Z,7.30
2017-10-28T08:57:56.196Z,7.03
2017-10-28T09:00:32.418Z,11.12
2017-10-28T09:03:02.857Z,8.77
2017-10-28T09:05:32.468Z,9.05
2017-10-28T09:08:05.570Z,6.55
2017-10-28T09:10:48.366Z,8.30
2017-10-28T09:13:21.629Z,9.10
2017-10-28T09:15:51.351Z,8.32
2017-10-28T09:18:20.823Z,9.45
2017-10-28T09:20:50.635Z,7.57
2017-10-28T09:23:20.299Z,8.98
2017-10-28T09:25:51.937Z,8.07
2017-10-28T09:28:21.430Z,12.35
2017-10-28T09:30:51.062Z,10.93
2017-10-28T09:33:20.729Z,7.15
2017-10-28T09:36:03.006Z,6.70
2017-10-28T09:38:38.909Z,5.82
2017-10-28T09:41:08.665Z,7.95
2017-10-28T09:43:52.748Z,5.95
2017-10-28T09:46:22.477Z,7.90
2017-10-28T09:48:52.890Z,9.43
2017-10-28T09:51:22.627Z,6.53
2017-10-28T09:53:53.130Z,6.62
2017-10-28T09:56:25.809Z,8.82
2017-10-28T09:58:55.721Z,6.05
2017-10-28T10:01:25.419Z,9.73
2017-10-28T10:03:55.099Z,7.07
2017-10-28T10:06:24.972Z,7.10
2017-10-28T10:08:55.517Z,11.07
2017-10-28T10:11:25.095Z,9.10
2017-10-28T10:13:54.782Z,9.80
2017-10-28T10:16:25.289Z,11.25
2017-10-28T10:18:54.954Z,8.02
2017-10-28T10:24:46.765Z,10.23
2017-10-28T10:27:16.479Z,10.50
2017-10-28T10:29:46.187Z,8.43
2017-10-28T10:32:14.994Z,7.28
2017-10-28T10:34:44.694Z,11.00
2017-10-28T10:37:14.048Z,11.27
2017-10-28T10:39:43.774Z,12.88
2017-10-28T10:42:13.455Z,8.25
2017-10-28T10:44:44.631Z,12.40
2017-10-28T10:47:22.094Z,7.37
2017-10-28T10:49:51.814Z,7.72
2017-10-28T10:52:22.127Z,7.32
2017-10-28T10:54:53.123Z,5.60
2017-10-28T10:57:36.409Z,6.32
2017-10-28T11:00:05.743Z,11.98
2017-10-28T11:02:35.217Z,12.73
2017-10-28T11:05:04.918Z,7.60
2017-10-28T11:07:34.579Z,7.57
2017-10-28T11:10:23.375Z,14.57
2017-10-28T11:12:53.038Z,10.25
2017-10-28T11:15:22.943Z,7.22
2017-10-28T11:17:52.615Z,11.32
2017-10-28T11:20:22.348Z,8.23
2017-10-28T11:22:52.041Z,15.40
2017-10-28T11:25:22.495Z,12.98
2017-10-28T11:27:56.011Z,15.10
2017-10-28T11:30:36.646Z,8.90
2017-10-28T11:33:12.311Z,8.00
2017-10-28T11:35:42.031Z,12.40
2017-10-28T11:38:20.866Z,11.75
2017-10-28T11:40:50.575Z,11.88
2017-10-28T11:43:21.015Z,10.90
2017-10-28T11:45:51.515Z,11.18
2017-10-28T11:48:21.182Z,12.40
2017-10-28T11:50:50.893Z,10.32
2017-10-28T11:53:21.327Z,7.05
2017-10-28T11:55:51.053Z,11.23
2017-10-28T11:58:20.703Z,9.07
2017-10-28T12:00:59.414Z,41.50
2017-10-28T12:03:29.078Z,9.48
2017-10-28T12:05:59.553Z,11.65
2017-10-28T12:11:21.986Z,8.75
2017-10-28T12:13:51.667Z,8.05
2017-10-28T12:16:22.102Z,9.20
2017-10-28T12:18:51.763Z,9.82
2017-10-28T12:21:21.480Z,12.15
2017-10-28T12:23:51.153Z,8.77
2017-10-28T12:26:23.567Z,14.68
2017-10-28T12:28:55.608Z,8.10
2017-10-28T12:34:21.042Z,6.80
2017-10-28T12:36:51.484Z,17.62
2017-10-28T12:39:21.310Z,11.48
2017-10-28T12:41:51.747Z,7.40
2017-10-28T12:44:21.455Z,13.32
2017-10-28T12:46:51.119Z,10.63
2017-10-28T12:49:20.461Z,11.90
2017-10-28T12:51:57.440Z,10.20
2017-10-28T12:54:27.112Z,6.45
2017-10-28T12:56:56.819Z,11.02
2017-10-28T12:59:39.242Z,13.32
2017-10-28T13:02:09.055Z,13.23
2017-10-28T13:04:39.061Z,11.15
2017-10-28T13:12:06.920Z,7.60
2017-10-28T13:17:30.183Z,8.32
2017-10-28T13:20:19.519Z,13.07
2017-10-28T13:23:07.779Z,8.40
2017-10-28T13:25:38.197Z,7.43
2017-10-28T13:28:08.226Z,8.07
2017-10-28T13:30:43.929Z,7.55
2017-10-28T13:33:13.618Z,11.68
2017-10-28T13:38:57.493Z,11.30
2017-10-28T13:41:27.937Z,9.77
2017-10-28T13:43:57.626Z,7.28
2017-10-28T13:46:39.016Z,13.75
2017-10-28T13:49:08.714Z,13.88
2017-10-28T13:51:38.391Z,7.10
2017-10-28T13:54:09.894Z,6.05
2017-10-28T13:56:39.613Z,7.78
2017-10-28T13:59:09.282Z,7.97
2017-10-28T14:01:38.986Z,5.30
2017-10-28T14:04:15.307Z,7.15
2017-10-28T14:06:45.779Z,6.97
2017-10-28T14:09:16.976Z,12.23
2017-10-28T14:12:03.623Z,22.23
2017-10-28T14:14:34.287Z,11.98
2017-10-28T14:17:04.754Z,8.20
2017-10-28T14:19:34.585Z,12.50
2017-10-28T14:22:04.142Z,10.50
2017-10-28T14:24:34.735Z,9.23
2017-10-28T14:30:13.210Z,16.48
2017-10-28T14:32:42.904Z,11.63
2017-10-28T14:35:13.927Z,7.07
2017-10-28T14:37:50.926Z,8.75
2017-10-28T14:40:26.857Z,9.02
2017-10-28T14:42:56.530Z,9.98
2017-10-28T14:45:35.495Z,12.27
2017-10-28T14:48:10.671Z,11.38
2017-10-28T14:50:40.550Z,9.57
2017-10-28T14:53:20.892Z,8.07
2017-10-28T14:55:50.815Z,8.65
2017-10-28T14:58:21.267Z,9.20
2017-10-28T15:00:52.615Z,9.02
2017-10-28T15:03:22.132Z,11.73
2017-10-28T15:05:52.544Z,13.45
2017-10-28T15:08:23.001Z,13.80
2017-10-28T15:10:52.665Z,5.72
2017-10-28T15:13:42.142Z,5.43
2017-10-28T15:16:11.880Z,11.65
2017-10-28T15:18:41.638Z,12.40
2017-10-28T15:21:11.348Z,7.20
2017-10-28T15:23:41.836Z,7.22
2017-10-28T15:26:12.469Z,13.05
2017-10-28T15:28:42.859Z,7.57
2017-10-28T15:31:12.742Z,8.13
2017-10-28T15:33:46.308Z,8.68
2017-10-28T15:36:16.771Z,9.48
2017-10-28T15:38:47.197Z,10.27
2017-10-28T15:41:19.680Z,10.52
2017-10-28T15:43:51.323Z,9.27
2017-10-28T15:46:21.024Z,11.90
2017-10-28T15:49:07.167Z,13.73
2017-10-28T15:51:36.869Z,12.88
2017-10-28T15:54:06.546Z,10.85
2017-10-28T15:56:37.262Z,10.27
2017-10-28T15:59:06.815Z,11.88
2017-10-28T16:01:39.577Z,8.05
2017-10-28T16:04:11.830Z,8.73
2017-10-28T16:06:57.503Z,13.35
2017-10-28T16:09:27.206Z,13.57
2017-10-28T16:11:57.435Z,12.48
2017-10-28T16:14:36.938Z,14.35
2017-10-28T16:17:06.407Z,12.80
2017-10-28T16:19:35.874Z,8.32
2017-10-28T16:22:10.490Z,11.38
2017-10-28T16:24:40.411Z,11.20
2017-10-28T16:27:10.709Z,9.50
2017-10-28T16:29:40.175Z,11.43
2017-10-28T16:32:09.638Z,8.43
2017-10-28T16:34:39.894Z,10.07
2017-10-28T16:37:12.782Z,10.43
2017-10-28T16:39:55.397Z,16.23
2017-10-28T16:42:25.622Z,15.57
2017-10-28T16:44:55.879Z,7.40
2017-10-28T16:47:34.209Z,12.35
2017-10-28T16:50:03.711Z,8.98
2017-10-28T16:52:33.193Z,11.40
2017-10-28T16:55:02.655Z,13.07
2017-10-28T16:57:37.504Z,11.10
2017-10-28T17:00:12.249Z,13.85
2017-10-28T17:02:41.779Z,8.82
2017-10-28T17:05:14.222Z,11.12
2017-10-28T17:07:46.411Z,9.38
2017-10-28T17:10:18.108Z,18.37
2017-10-28T17:12:52.578Z,8.88
2017-10-28T17:15:29.594Z,6.90
2017-10-28T17:17:59.852Z,10.57
2017-10-28T17:20:29.386Z,8.00
2017-10-28T17:23:02.750Z,11.52
2017-10-28T17:25:36.676Z,11.73
2017-10-28T17:28:11.903Z,10.32
2017-10-28T17:30:42.149Z,9.77
2017-10-28T17:33:17.583Z,9.02
2017-10-28T17:35:53.458Z,12.10
2017-10-28T17:38:23.334Z,13.00
2017-10-28T17:40:59.338Z,6.80
2017-10-28T17:43:29.619Z,10.60
2017-10-28T17:45:59.212Z,14.07
2017-10-28T17:48:29.855Z,12.80
2017-10-28T17:51:00.458Z,17.35
2017-10-28T17:53:32.470Z,9.93
2017-10-28T17:56:05.095Z,11.57
2017-10-28T17:58:36.823Z,14.82
2017-10-28T18:01:17.617Z,13.98
2017-10-28T18:03:48.103Z,11.88
2017-10-28T18:06:18.528Z,8.48
2017-10-28T18:08:49.126Z,8.95
2017-10-28T18:11:30.250Z,8.88
2017-10-28T18:13:59.744Z,10.02
2017-10-28T18:16:29.524Z,13.23
2017-10-28T18:19:09.243Z,11.85
2017-10-28T18:21:38.760Z,9.15
2017-10-28T18:24:15.889Z,11.30
2017-10-28T18:26:48.999Z,15.50
2017-10-28T18:29:19.574Z,13.43
2017-10-28T18:31:58.337Z,12.63
2017-10-28T18:34:27.865Z,13.45
2017-10-28T18:37:04.550Z,18.37
2017-10-28T18:39:34.651Z,13.38
2017-10-28T18:42:04.248Z,14.95
2017-10-28T18:44:37.925Z,13.60
2017-10-28T18:47:07.435Z,9.40
2017-10-28T18:49:40.630Z,11.57
2017-10-28T18:52:12.150Z,10.13
2017-10-28T18:54:52.456Z,13.60
2017-10-28T18:57:21.960Z,17.62
2017-10-28T18:59:51.432Z,10.65
2017-10-28T19:02:20.908Z,13.38
2017-10-28T19:04:56.348Z,9.02
2017-10-28T19:07:26.586Z,15.82
2017-10-28T19:09:56.872Z,14.57
2017-10-28T19:12:36.933Z,13.38
2017-10-28T19:15:09.142Z,15.20
2017-10-28T19:17:55.537Z,12.57
2017-10-28T19:20:25.106Z,15.95
2017-10-28T19:22:54.576Z,14.68
2017-10-28T19:25:25.591Z,14.30
2017-10-28T19:27:55.486Z,17.08
2017-10-28T19:30:25.151Z,9.75
2017-10-28T19:32:59.533Z,14.00
2017-10-28T19:35:29.600Z,16.00
2017-10-28T19:38:24.298Z,8.55
2017-10-28T19:43:41.239Z,13.38
2017-10-28T19:46:16.991Z,12.23
2017-10-28T19:48:46.871Z,10.40
2017-10-28T19:51:24.538Z,13.88
2017-10-28T19:53:54.701Z,13.38
2017-10-28T19:56:23.998Z,13.20
2017-10-28T19:59:00.558Z,17.12
2017-10-28T20:01:30.107Z,21.95
2017-10-28T20:04:00.864Z,16.87
2017-10-28T20:06:34.788Z,19.92
2017-10-28T20:09:10.976Z,17.80
2017-10-28T20:11:41.221Z,20.65
2017-10-28T20:14:24.182Z,24.40
2017-10-28T20:16:53.685Z,19.15
2017-10-28T20:19:23.174Z,17.12
2017-10-28T20:21:52.671Z,17.92
2017-10-28T20:24:21.834Z,17.87
2017-10-28T20:26:55.594Z,20.85
2017-10-28T20:29:29.729Z,20.15
2017-10-28T20:32:14.146Z,22.95
2017-10-28T20:34:43.643Z,21.87
2017-10-28T20:37:13.543Z,19.90
2017-10-28T20:39:43.027Z,23.30
2017-10-28T20:42:15.670Z,20.65
2017-10-28T20:44:54.818Z,28.80
2017-10-28T20:47:23.983Z,19.20
2017-10-28T20:49:53.451Z,19.02
2017-10-28T20:52:24.767Z,24.48
2017-10-28T20:54:57.554Z,16.65
2017-10-28T20:57:28.368Z,20.48
2017-10-28T20:59:57.861Z,18.65
2017-10-28T21:02:33.570Z,24.67
2017-10-28T21:05:15.716Z,23.20
2017-10-28T21:07:52.209Z,22.33
2017-10-28T21:10:21.719Z,21.05
2017-10-28T21:12:51.262Z,18.90
2017-10-28T21:15:20.775Z,19.02
2017-10-28T21:17:51.442Z,21.10
2017-10-28T21:20:38.195Z,20.83
2017-10-28T21:23:07.714Z,27.58
2017-10-28T21:25:37.197Z,26.50
2017-10-28T21:28:06.760Z,26.62
2017-10-28T21:30:50.310Z,25.85
2017-10-28T21:33:19.831Z,23.50
2017-10-28T21:35:50.320Z,28.85
2017-10-28T21:38:20.563Z,31.77
2017-10-28T21:40:52.440Z,28.12
2017-10-28T21:43:27.718Z,31.62
2017-10-28T21:45:57.423Z,29.45
2017-10-28T21:48:36.828Z,31.92
2017-10-28T21:51:07.658Z,34.30
2017-10-28T21:53:36.950Z,38.50
2017-10-28T21:56:16.324Z,40.38
2017-10-28T21:58:46.469Z,36.00
2017-10-28T22:01:15.997Z,32.28
2017-10-28T22:06:55.658Z,37.15
2017-10-28T22:09:25.903Z,36.42
2017-10-28T22:11:55.432Z,29.00
2017-10-28T22:14:24.926Z,30.83
2017-10-28T22:16:54.408Z,30.88
2017-10-28T22:19:28.512Z,29.98
2017-10-28T22:22:04.776Z,29.75
2017-10-28T22:24:34.325Z,27.52
2017-10-28T22:27:08.171Z,27.42
2017-10-28T22:29:50.011Z,30.08
2017-10-28T22:32:20.259Z,21.35
2017-10-28T22:34:49.804Z,24.25
2017-10-28T22:37:23.435Z,19.08
2017-10-28T22:39:52.975Z,21.52
2017-10-28T22:42:22.457Z,23.50
2017-10-28T22:44:55.207Z,21.52
2017-10-28T22:47:24.691Z,22.42
2017-10-28T22:50:00.431Z,20.30
2017-10-28T22:52:37.163Z,17.48
2017-10-28T22:55:06.684Z,18.50
2017-10-28T22:57:38.534Z,15.65
2017-10-28T23:00:11.558Z,17.48
2017-10-28T23:03:02.270Z,16.33
2017-10-28T23:05:32.054Z,17.23
2017-10-28T23:08:01.730Z,15.15
2017-10-28T23:10:31.429Z,15.63
2017-10-28T23:13:01.758Z,11.45
2017-10-28T23:15:31.474Z,13.60
2017-10-28T23:18:10.119Z,10.18
2017-10-28T23:20:45.959Z,11.88
2017-10-28T23:23:15.427Z,10.95
2017-10-28T23:25:45.259Z,12.27
2017-10-28T23:28:15.690Z,9.15
2017-10-28T23:30:45.404Z,10.07
2017-10-28T23:33:20.602Z,12.98
2017-10-28T23:35:50.306Z,8.10
2017-10-28T23:38:19.970Z,9.57
2017-10-28T23:40:49.683Z,9.48
2017-10-28T23:43:19.354Z,7.57
2017-10-28T23:46:01.735Z,10.88
2017-10-28T23:48:58.642Z,9.95
2017-10-28T23:51:28.334Z,9.00
2017-10-28T23:54:05.211Z,8.82
2017-10-28T23:56:43.858Z,6.55
2017-10-28T23:59:14.331Z,7.00
